createdAt,value
2023-04-18T00:00:13.874Z,102217.02
2023-04-18T00:01:13.523Z,102216.53
2023-04-18T00:02:13.754Z,102216.19
2023-04-18T00:03:14.385Z,102215.94
2023-04-18T00:04:15.676Z,102215.77
2023-04-18T00:05:15.753Z,102215.44
2023-04-18T00:06:16.727Z,102214.77
2023-04-18T00:07:16.282Z,102214.55
2023-04-18T00:07:24.963Z,102211.68
2023-04-18T00:08:25.493Z,102211.55
2023-04-18T00:09:26.362Z,102210.94
2023-04-18T00:10:26.967Z,102210.27
2023-04-18T00:11:27.484Z,102210.09
2023-04-18T00:12:28.073Z,102209.70
2023-04-18T00:13:28.704Z,102209.87
2023-04-18T00:14:29.404Z,102209.63
2023-04-18T00:15:30.024Z,102209.13
2023-04-18T00:16:30.934Z,102208.61
2023-04-18T00:17:31.460Z,102207.61
2023-04-18T00:18:32.054Z,102206.53
2023-04-18T00:18:40.756Z,102200.60
2023-04-18T00:19:41.401Z,102199.75
2023-04-18T00:20:42.045Z,102199.16
2023-04-18T00:21:42.993Z,102198.59
2023-04-18T00:22:44.611Z,102197.91
2023-04-18T00:23:45.137Z,102196.75
2023-04-18T00:24:44.822Z,102195.98
2023-04-18T00:25:45.635Z,102194.91
2023-04-18T00:26:46.668Z,102194.55
2023-04-18T00:27:47.314Z,102193.73
2023-04-18T00:28:48.003Z,102193.47
2023-04-18T00:29:48.604Z,102192.82
2023-04-18T00:29:57.364Z,102185.47
2023-04-18T00:30:57.905Z,102185.47
2023-04-18T00:31:58.679Z,102185.38
2023-04-18T00:33:00.253Z,102185.86
2023-04-18T00:33:59.785Z,102186.45
2023-04-18T00:35:00.453Z,102186.80
2023-04-18T00:36:00.967Z,102186.63
2023-04-18T00:37:01.566Z,102186.96
2023-04-18T00:38:02.423Z,102186.88
2023-04-18T00:39:02.961Z,102186.80
2023-04-18T00:40:03.523Z,102187.13
2023-04-18T00:40:12.205Z,102181.19
2023-04-18T00:41:13.059Z,102181.47
2023-04-18T00:42:13.630Z,102181.45
2023-04-18T00:43:14.188Z,102181.63
2023-04-18T00:44:15.101Z,102181.95
2023-04-18T00:45:15.380Z,102182.45
2023-04-18T00:46:16.488Z,102182.98
2023-04-18T00:47:16.035Z,102183.47
2023-04-18T00:48:16.619Z,102183.90
2023-04-18T00:49:17.205Z,102184.16
2023-04-18T00:50:17.912Z,102184.48
2023-04-18T00:51:18.442Z,102184.31
2023-04-18T00:52:19.028Z,102184.14
2023-04-18T00:53:19.542Z,102184.41
2023-04-18T00:53:33.120Z,102181.41
2023-04-18T00:54:33.688Z,102181.66
2023-04-18T00:55:34.386Z,102181.66
2023-04-18T00:56:35.065Z,102181.49
2023-04-18T00:57:35.660Z,102181.40
2023-04-18T00:58:36.208Z,102181.49
2023-04-18T00:59:36.727Z,102180.75
2023-04-18T01:00:36.756Z,102180.58
2023-04-18T01:01:37.499Z,102180.73
2023-04-18T01:02:38.059Z,102180.98
2023-04-18T01:03:38.816Z,102180.65
2023-04-18T01:04:39.406Z,102180.67
2023-04-18T01:05:39.453Z,102180.09
2023-04-18T01:06:40.049Z,102179.77
2023-04-18T01:06:49.122Z,102172.47
2023-04-18T01:07:49.663Z,102172.39
2023-04-18T01:08:50.268Z,102171.55
2023-04-18T01:09:50.798Z,102170.80
2023-04-18T01:10:51.824Z,102170.64
2023-04-18T01:11:51.461Z,102170.56
2023-04-18T01:12:52.082Z,102169.98
2023-04-18T01:13:52.671Z,102169.31
2023-04-18T01:14:53.188Z,102169.05
2023-04-18T01:15:53.908Z,102167.97
2023-04-18T01:16:54.497Z,102167.78
2023-04-18T01:17:55.138Z,102166.70
2023-04-18T01:18:07.145Z,102166.22
2023-04-18T01:19:08.069Z,102166.63
2023-04-18T01:20:08.703Z,102165.86
2023-04-18T01:21:09.322Z,102165.21
2023-04-18T01:22:10.166Z,102164.52
2023-04-18T01:23:10.234Z,102163.45
2023-04-18T01:24:10.977Z,102162.11
2023-04-18T01:25:11.504Z,102161.19
2023-04-18T01:26:12.127Z,102159.86
2023-04-18T01:27:12.738Z,102158.16
2023-04-18T01:28:13.342Z,102157.33
2023-04-18T01:29:13.888Z,102155.92
2023-04-18T01:29:22.554Z,102149.55
2023-04-18T01:30:23.165Z,102149.74
2023-04-18T01:31:24.023Z,102149.05
2023-04-18T01:32:24.923Z,102148.46
2023-04-18T01:33:25.492Z,102148.05
2023-04-18T01:34:26.043Z,102147.38
2023-04-18T01:35:26.208Z,102146.62
2023-04-18T01:36:26.409Z,102145.63
2023-04-18T01:37:26.978Z,102144.28
2023-04-18T01:38:27.364Z,102143.70
2023-04-18T01:39:27.795Z,102143.20
2023-04-18T01:40:28.474Z,102142.37
2023-04-18T01:40:37.254Z,102135.19
2023-04-18T01:41:37.753Z,102134.25
2023-04-18T01:42:38.428Z,102133.75
2023-04-18T01:43:39.021Z,102132.50
2023-04-18T01:44:39.545Z,102131.64
2023-04-18T01:45:40.134Z,102130.75
2023-04-18T01:46:40.574Z,102128.98
2023-04-18T01:47:41.060Z,102128.48
2023-04-18T01:48:41.683Z,102126.95
2023-04-18T01:49:42.618Z,102126.23
2023-04-18T01:50:43.203Z,102125.39
2023-04-18T01:51:43.883Z,102124.27
2023-04-18T01:52:44.408Z,102123.33
2023-04-18T01:52:53.532Z,102122.33
2023-04-18T01:53:53.596Z,102121.66
2023-04-18T01:54:54.180Z,102120.98
2023-04-18T01:55:54.739Z,102120.27
2023-04-18T01:56:54.850Z,102120.67
2023-04-18T01:57:55.119Z,102119.81
2023-04-18T01:58:55.772Z,102119.26
2023-04-18T01:59:56.354Z,102118.49
2023-04-18T02:00:58.299Z,102118.14
2023-04-18T02:01:57.309Z,102117.82
2023-04-18T02:02:57.987Z,102117.25
2023-04-18T02:03:58.007Z,102117.00
2023-04-18T02:04:06.599Z,102112.55
2023-04-18T02:05:06.650Z,102112.64
2023-04-18T02:06:07.592Z,102112.45
2023-04-18T02:07:08.254Z,102112.47
2023-04-18T02:08:08.964Z,102112.28
2023-04-18T02:09:09.787Z,102111.64
2023-04-18T02:10:10.443Z,102111.53
2023-04-18T02:11:11.113Z,102111.20
2023-04-18T02:12:11.856Z,102110.47
2023-04-18T02:13:12.739Z,102109.96
2023-04-18T02:14:13.434Z,102109.36
2023-04-18T02:15:14.006Z,102108.36
2023-04-18T02:16:14.615Z,102107.78
2023-04-18T02:16:23.367Z,102099.73
2023-04-18T02:17:23.472Z,102099.84
2023-04-18T02:18:23.923Z,102100.09
2023-04-18T02:19:24.914Z,102099.99
2023-04-18T02:20:25.031Z,102099.67
2023-04-18T02:21:25.890Z,102099.25
2023-04-18T02:22:25.949Z,102099.16
2023-04-18T02:23:26.487Z,102098.67
2023-04-18T02:24:27.140Z,102098.33
2023-04-18T02:25:28.767Z,102098.31
2023-04-18T02:26:28.549Z,102098.41
2023-04-18T02:27:29.055Z,102098.75
2023-04-18T02:27:37.743Z,102093.95
2023-04-18T02:28:38.688Z,102094.30
2023-04-18T02:29:39.269Z,102094.55
2023-04-18T02:30:39.918Z,102094.73
2023-04-18T02:31:40.505Z,102093.81
2023-04-18T02:32:41.184Z,102093.80
2023-04-18T02:33:41.703Z,102093.14
2023-04-18T02:34:42.404Z,102093.64
2023-04-18T02:35:43.013Z,102093.12
2023-04-18T02:36:44.657Z,102093.20
2023-04-18T02:37:44.424Z,102093.05
2023-04-18T02:37:53.079Z,102086.77
2023-04-18T02:38:53.368Z,102085.84
2023-04-18T02:39:53.993Z,102086.03
2023-04-18T02:40:54.587Z,102085.19
2023-04-18T02:41:55.151Z,102084.44
2023-04-18T02:42:55.950Z,102083.75
2023-04-18T02:43:56.465Z,102083.10
2023-04-18T02:44:57.078Z,102082.58
2023-04-18T02:45:57.620Z,102081.58
2023-04-18T02:46:58.146Z,102081.16
2023-04-18T02:47:58.881Z,102080.08
2023-04-18T02:48:59.484Z,102079.42
2023-04-18T02:49:10.612Z,102078.57
2023-04-18T02:50:11.280Z,102078.14
2023-04-18T02:51:11.836Z,102076.99
2023-04-18T02:52:13.554Z,102076.30
2023-04-18T02:53:13.406Z,102075.55
2023-04-18T02:54:14.037Z,102074.98
2023-04-18T02:55:14.752Z,102074.66
2023-04-18T02:56:15.251Z,102073.97
2023-04-18T02:57:15.931Z,102073.65
2023-04-18T02:58:16.528Z,102073.04
2023-04-18T02:59:17.125Z,102073.22
2023-04-18T02:59:27.315Z,102067.27
2023-04-18T03:00:28.144Z,102067.27
2023-04-18T03:01:28.773Z,102066.84
2023-04-18T03:02:29.575Z,102065.95
2023-04-18T03:03:30.030Z,102065.53
2023-04-18T03:04:30.571Z,102065.03
2023-04-18T03:05:30.829Z,102064.50
2023-04-18T03:06:32.435Z,102063.85
2023-04-18T03:07:32.020Z,102063.09
2023-04-18T03:08:32.866Z,102062.27
2023-04-18T03:09:33.085Z,102061.77
2023-04-18T03:10:33.747Z,102060.51
2023-04-18T03:10:42.411Z,102055.98
2023-04-18T03:11:42.927Z,102055.48
2023-04-18T03:12:43.547Z,102055.08
2023-04-18T03:13:44.428Z,102054.31
2023-04-18T03:14:44.512Z,102054.16
2023-04-18T03:15:45.235Z,102053.23
2023-04-18T03:16:45.768Z,102053.06
2023-04-18T03:17:46.430Z,102052.39
2023-04-18T03:18:46.508Z,102051.47
2023-04-18T03:19:47.023Z,102051.30
2023-04-18T03:20:47.724Z,102050.54
2023-04-18T03:20:56.437Z,102045.20
2023-04-18T03:21:57.033Z,102045.03
2023-04-18T03:22:57.621Z,102044.70
2023-04-18T03:23:58.274Z,102043.70
2023-04-18T03:24:58.810Z,102043.04
2023-04-18T03:25:59.429Z,102042.11
2023-04-18T03:26:59.543Z,102042.09
2023-04-18T03:28:00.160Z,102041.18
2023-04-18T03:29:01.376Z,102040.53
2023-04-18T03:30:01.030Z,102040.01
2023-04-18T03:31:01.926Z,102039.59
2023-04-18T03:32:02.332Z,102038.94
2023-04-18T03:33:03.085Z,102038.42
2023-04-18T03:33:11.705Z,102034.84
2023-04-18T03:34:11.844Z,102033.98
2023-04-18T03:35:12.408Z,102033.56
2023-04-18T03:36:13.163Z,102032.41
2023-04-18T03:37:13.177Z,102031.22
2023-04-18T03:38:13.887Z,102030.66
2023-04-18T03:39:13.938Z,102029.80
2023-04-18T03:40:13.949Z,102029.08
2023-04-18T03:41:14.120Z,102027.64
2023-04-18T03:42:14.886Z,102026.72
2023-04-18T03:43:15.568Z,102025.45
2023-04-18T03:44:16.386Z,102024.45
2023-04-18T03:44:25.357Z,102021.44
2023-04-18T03:45:25.850Z,102020.77
2023-04-18T03:46:26.655Z,102020.11
2023-04-18T03:47:26.595Z,102019.38
2023-04-18T03:48:26.944Z,102018.04
2023-04-18T03:49:27.373Z,102017.38
2023-04-18T03:50:28.013Z,102016.35
2023-04-18T03:51:28.764Z,102015.19
2023-04-18T03:52:29.889Z,102014.20
2023-04-18T03:53:30.259Z,102012.84
2023-04-18T03:54:31.053Z,102012.27
2023-04-18T03:55:31.671Z,102010.92
2023-04-18T03:56:32.026Z,102009.66
2023-04-18T03:56:43.538Z,102005.75
2023-04-18T03:57:43.566Z,102004.59
2023-04-18T03:58:44.136Z,102003.92
2023-04-18T03:59:46.062Z,102002.66
2023-04-18T04:00:44.640Z,102001.56
2023-04-18T04:01:44.771Z,101999.96
2023-04-18T04:02:45.507Z,101998.73
2023-04-18T04:03:46.358Z,101997.80
2023-04-18T04:04:47.150Z,101996.80
2023-04-18T04:05:47.143Z,101995.47
2023-04-18T04:06:47.379Z,101994.12
2023-04-18T04:07:47.369Z,101992.63
2023-04-18T04:08:48.227Z,101991.22
2023-04-18T04:09:48.778Z,101989.87
2023-04-18T04:10:49.435Z,101988.62
2023-04-18T04:11:03.216Z,101983.78
2023-04-18T04:12:03.932Z,101983.51
2023-04-18T04:13:04.285Z,101983.28
2023-04-18T04:14:05.113Z,101982.61
2023-04-18T04:15:05.223Z,101981.69
2023-04-18T04:16:05.604Z,101981.19
2023-04-18T04:17:05.872Z,101980.76
2023-04-18T04:18:06.547Z,101979.92
2023-04-18T04:19:06.780Z,101979.42
2023-04-18T04:20:07.385Z,101979.09
2023-04-18T04:21:07.851Z,101977.99
2023-04-18T04:22:07.918Z,101977.66
2023-04-18T04:23:07.981Z,101977.16
2023-04-18T04:23:17.181Z,101974.33
2023-04-18T04:24:18.019Z,101973.73
2023-04-18T04:25:18.221Z,101973.06
2023-04-18T04:26:18.910Z,101973.08
2023-04-18T04:27:19.135Z,101972.64
2023-04-18T04:28:19.160Z,101972.23
2023-04-18T04:29:20.024Z,101972.25
2023-04-18T04:30:20.926Z,101971.64
2023-04-18T04:31:21.707Z,101972.09
2023-04-18T04:32:21.695Z,101971.73
2023-04-18T04:33:22.249Z,101971.14
2023-04-18T04:34:22.912Z,101971.39
2023-04-18T04:35:23.870Z,101971.08
2023-04-18T04:36:24.546Z,101970.41
2023-04-18T04:37:25.150Z,101969.89
2023-04-18T04:38:25.591Z,101969.06
2023-04-18T04:39:26.318Z,101968.33
2023-04-18T04:39:35.510Z,101965.31
2023-04-18T04:40:36.820Z,101964.91
2023-04-18T04:41:36.500Z,101964.31
2023-04-18T04:42:37.322Z,101964.31
2023-04-18T04:43:38.022Z,101963.22
2023-04-18T04:44:38.733Z,101962.63
2023-04-18T04:45:39.733Z,101961.87
2023-04-18T04:46:39.805Z,101960.95
2023-04-18T04:47:40.048Z,101959.78
2023-04-18T04:48:40.332Z,101958.94
2023-04-18T04:49:40.914Z,101958.13
2023-04-18T04:50:41.444Z,101957.34
2023-04-18T04:51:41.472Z,101957.00
2023-04-18T04:51:50.578Z,101904.95
2023-04-18T04:52:51.202Z,101949.83
2023-04-18T04:53:51.785Z,101949.68
2023-04-18T04:54:52.183Z,101949.84
2023-04-18T04:55:52.627Z,101950.01
2023-04-18T04:56:53.198Z,101950.92
2023-04-18T04:57:53.724Z,101950.82
2023-04-18T04:58:55.353Z,101951.48
2023-04-18T04:59:55.043Z,101952.06
2023-04-18T05:00:56.040Z,101952.72
2023-04-18T05:01:56.663Z,101953.27
2023-04-18T05:02:57.527Z,101954.52
2023-04-18T05:03:57.720Z,101955.20
2023-04-18T05:04:07.430Z,101908.80
2023-04-18T05:05:07.794Z,101967.22
2023-04-18T05:06:07.906Z,101966.72
2023-04-18T05:07:08.681Z,101967.70
2023-04-18T05:08:09.210Z,101968.31
2023-04-18T05:09:10.049Z,101968.22
2023-04-18T05:10:10.625Z,101969.05
2023-04-18T05:11:11.261Z,101969.88
2023-04-18T05:12:11.309Z,101970.52
2023-04-18T05:13:11.924Z,101971.61
2023-04-18T05:14:13.121Z,101972.70
2023-04-18T05:15:13.195Z,101973.59
2023-04-18T05:15:21.869Z,101988.13
2023-04-18T05:16:21.904Z,101994.62
2023-04-18T05:17:22.572Z,101994.72
2023-04-18T05:18:23.507Z,101995.31
2023-04-18T05:19:24.330Z,101995.54
2023-04-18T05:20:24.978Z,101996.39
2023-04-18T05:21:25.659Z,101997.05
2023-04-18T05:22:25.754Z,101997.62
2023-04-18T05:23:26.290Z,101998.28
2023-04-18T05:24:27.186Z,101998.89
2023-04-18T05:25:27.210Z,102000.02
2023-04-18T05:26:27.965Z,102001.02
2023-04-18T05:27:28.551Z,102001.95
2023-04-18T05:27:38.708Z,101998.00
2023-04-18T05:28:39.367Z,102020.08
2023-04-18T05:29:39.919Z,102020.14
2023-04-18T05:30:40.695Z,102020.32
2023-04-18T05:31:41.456Z,102020.90
2023-04-18T05:32:42.240Z,102021.25
2023-04-18T05:33:42.561Z,102021.39
2023-04-18T05:34:43.332Z,102022.21
2023-04-18T05:35:43.871Z,102022.39
2023-04-18T05:36:44.436Z,102022.34
2023-04-18T05:37:45.037Z,102021.91
2023-04-18T05:38:45.662Z,102021.50
2023-04-18T05:38:58.952Z,101937.99
2023-04-18T05:40:00.861Z,102027.38
2023-04-18T05:41:00.228Z,102027.26
2023-04-18T05:42:00.226Z,102027.37
2023-04-18T05:43:00.262Z,102028.22
2023-04-18T05:44:05.371Z,102031.19
2023-04-18T05:45:01.864Z,102033.97
2023-04-18T05:46:02.452Z,102037.92
2023-04-18T05:47:03.188Z,102042.02
2023-04-18T05:48:03.791Z,102045.87
2023-04-18T05:49:04.257Z,102049.73
2023-04-18T05:50:04.629Z,102054.81
2023-04-18T05:50:13.786Z,102056.16
2023-04-18T05:51:14.495Z,102062.23
2023-04-18T05:52:15.062Z,102068.47
2023-04-18T05:53:15.682Z,102074.76
2023-04-18T05:54:16.159Z,102082.62
2023-04-18T05:55:15.984Z,102089.50
2023-04-18T05:56:16.141Z,102096.57
2023-04-18T05:57:16.769Z,102104.89
2023-04-18T05:58:17.174Z,102113.90
2023-04-18T05:59:17.585Z,102124.51
2023-04-18T06:00:17.949Z,102135.44
2023-04-18T06:01:18.349Z,102146.22
2023-04-18T06:02:19.603Z,102157.30
2023-04-18T06:03:19.611Z,102168.75
2023-04-18T06:03:30.675Z,102158.75
2023-04-18T06:04:31.042Z,102170.53
2023-04-18T06:05:31.362Z,102182.03
2023-04-18T06:06:31.863Z,102193.06
2023-04-18T06:07:32.527Z,102203.41
2023-04-18T06:08:32.600Z,102213.85
2023-04-18T06:09:32.680Z,102224.14
2023-04-18T06:10:33.527Z,102233.74
2023-04-18T06:11:33.630Z,102243.01
2023-04-18T06:12:35.659Z,102251.81
2023-04-18T06:13:35.591Z,102260.45
2023-04-18T06:14:36.408Z,102268.65
2023-04-18T06:15:37.744Z,102275.72
2023-04-18T06:16:37.226Z,102283.12
2023-04-18T06:17:38.029Z,102290.08
2023-04-18T06:17:54.583Z,102272.10
2023-04-18T06:18:54.724Z,102279.34
2023-04-18T06:19:55.398Z,102285.92
2023-04-18T06:20:55.458Z,102293.05
2023-04-18T06:21:55.766Z,102299.23
2023-04-18T06:22:56.382Z,102304.91
2023-04-18T06:23:56.731Z,102310.60
2023-04-18T06:24:57.013Z,102315.41
2023-04-18T06:25:57.140Z,102320.20
2023-04-18T12:55:46.912Z,102324.73
2023-04-18T12:56:47.154Z,102323.59
2023-04-18T12:57:48.152Z,102322.68
2023-04-18T12:58:48.429Z,102321.92
2023-04-18T12:59:48.945Z,102321.25
2023-04-18T13:00:49.819Z,102321.10
2023-04-18T13:01:50.725Z,102320.30
2023-04-18T13:02:52.677Z,102319.62
2023-04-18T13:03:11.784Z,101866.37
2023-04-18T13:04:12.898Z,102315.72
2023-04-18T13:05:11.049Z,102315.33
2023-04-18T13:06:12.464Z,102315.33
2023-04-18T13:07:11.486Z,102314.64
2023-04-18T13:08:17.721Z,102314.64
2023-04-18T13:09:12.731Z,102313.80
2023-04-18T13:10:14.348Z,102312.44
2023-04-18T13:11:13.836Z,102311.75
2023-04-18T13:12:15.663Z,102311.30
2023-04-18T13:13:16.199Z,102310.19
2023-04-18T13:14:15.831Z,102309.52
2023-04-18T13:15:15.843Z,102308.20
2023-04-18T13:16:16.437Z,102307.58
2023-04-18T13:16:28.053Z,102286.38
2023-04-18T13:17:28.596Z,102286.88
2023-04-18T13:18:29.173Z,102287.79
2023-04-18T13:19:29.638Z,102288.41
2023-04-18T13:20:30.972Z,102288.58
2023-04-18T13:21:30.105Z,102289.00
2023-04-18T13:22:35.618Z,102289.30
2023-04-18T13:23:31.126Z,102290.35
2023-04-18T13:24:31.241Z,102290.45
2023-04-18T13:25:31.853Z,102291.79
2023-04-18T13:26:32.358Z,102291.85
2023-04-18T13:27:33.232Z,102292.52
2023-04-18T13:28:33.885Z,102292.22
2023-04-18T13:29:35.165Z,102292.41
2023-04-18T13:29:44.852Z,102268.33
2023-04-18T13:30:44.755Z,102270.25
2023-04-18T13:31:45.750Z,102272.30
2023-04-18T13:32:46.362Z,102274.33
2023-04-18T13:33:47.087Z,102275.58
2023-04-18T13:34:48.019Z,102277.37
2023-04-18T13:35:48.869Z,102279.47
2023-04-18T13:36:49.360Z,102281.27
2023-04-18T13:37:49.918Z,102282.25
2023-04-18T13:38:50.062Z,102283.41
2023-04-18T13:39:51.506Z,102284.77
2023-04-18T13:41:01.013Z,102286.38
2023-04-18T13:41:52.418Z,102287.57
2023-04-18T13:42:01.458Z,102262.38
2023-04-18T13:43:01.831Z,102264.89
2023-04-18T13:44:05.138Z,102267.37
2023-04-18T13:45:02.852Z,102269.30
2023-04-18T13:46:03.053Z,102271.14
2023-04-18T13:47:03.868Z,102272.56
2023-04-18T13:48:04.560Z,102274.53
2023-04-18T13:49:05.030Z,102275.45
2023-04-18T13:50:05.473Z,102276.36
2023-04-18T13:51:06.268Z,102277.44
2023-04-18T13:52:07.245Z,102278.81
2023-04-18T13:53:08.110Z,102278.95
2023-04-18T13:54:08.606Z,102279.05
2023-04-18T13:54:17.305Z,102255.18
2023-04-18T13:55:17.515Z,102256.89
2023-04-18T13:56:17.715Z,102259.07
2023-04-18T13:57:18.095Z,102261.13
2023-04-18T13:58:18.939Z,102262.41
2023-04-18T13:59:27.823Z,102264.47
2023-04-18T14:00:19.668Z,102265.92
2023-04-18T14:01:20.524Z,102267.59
2023-04-18T14:02:21.048Z,102268.58
2023-04-18T14:03:22.893Z,102270.47
2023-04-18T14:04:22.101Z,102272.44
2023-04-18T14:05:08.653Z,102274.27
2023-04-18T14:06:06.014Z,102276.15
2023-04-18T14:07:06.825Z,102277.48
2023-04-18T14:08:07.003Z,102278.29
2023-04-18T14:09:06.992Z,102278.56
2023-04-18T14:10:10.779Z,102279.38
2023-04-18T14:11:08.550Z,102280.78
2023-04-18T14:12:09.468Z,102281.64
2023-04-18T14:13:09.903Z,102282.23
2023-04-18T14:14:10.467Z,102282.84
2023-04-18T14:15:12.341Z,102283.17
2023-04-18T14:16:12.226Z,102283.56
2023-04-18T14:17:12.233Z,102283.98
2023-04-18T14:17:29.195Z,102261.88
2023-04-18T14:18:30.246Z,102263.87
2023-04-18T14:19:30.680Z,102265.89
2023-04-18T14:20:31.046Z,102268.18
2023-04-18T14:21:31.504Z,102269.42
2023-04-18T14:22:32.020Z,102270.70
2023-04-18T14:23:32.778Z,102271.77
2023-04-18T14:24:34.257Z,102272.78
2023-04-18T14:25:33.619Z,102273.60
2023-04-18T14:26:34.099Z,102274.62
2023-04-18T14:27:34.869Z,102275.61
2023-04-18T14:28:35.419Z,102276.55
2023-04-18T14:29:36.305Z,102277.39
2023-04-18T14:29:52.532Z,102278.41
2023-04-18T14:30:53.412Z,102279.17
2023-04-18T14:31:54.811Z,102280.20
2023-04-18T14:32:54.698Z,102281.09
2023-04-18T14:33:55.177Z,102282.02
2023-04-18T14:34:55.891Z,102282.56
2023-04-18T14:35:57.639Z,102282.99
2023-04-18T14:36:57.110Z,102283.81
2023-04-18T14:37:57.967Z,102285.02
2023-04-18T14:38:07.685Z,102286.12
2023-04-18T14:39:07.985Z,102286.56
2023-04-18T14:40:08.417Z,102287.91
2023-04-18T14:41:08.886Z,102288.25
2023-04-18T14:42:09.341Z,102288.91
2023-04-18T14:43:10.207Z,102289.14
2023-04-18T14:44:10.409Z,102289.96
2023-04-18T14:45:10.863Z,102289.61
2023-04-18T14:46:11.260Z,102289.71
2023-04-18T14:47:14.788Z,102289.94
2023-04-18T14:48:13.352Z,102289.31
2023-04-18T14:49:12.924Z,102289.58
2023-04-18T14:50:12.862Z,102289.93
2023-04-18T14:51:12.933Z,102290.11
2023-04-18T14:51:23.838Z,102290.38
2023-04-18T14:52:23.106Z,102290.08
2023-04-18T14:53:23.636Z,102290.33
2023-04-18T14:54:24.174Z,102290.42
2023-04-18T14:55:25.567Z,102290.77
2023-04-18T14:56:24.644Z,102290.78
2023-04-18T14:57:25.481Z,102290.63
2023-04-18T14:58:24.903Z,102291.27
2023-04-18T14:59:25.830Z,102291.69
2023-04-18T15:00:26.709Z,102291.40
2023-04-18T15:01:27.593Z,102291.56
2023-04-18T15:01:48.733Z,102291.98
2023-04-18T15:02:49.843Z,102291.56
2023-04-18T15:03:51.773Z,102291.69
2023-04-18T15:04:50.852Z,102291.18
2023-04-18T15:05:51.452Z,102291.60
2023-04-18T15:06:51.896Z,102291.30
2023-04-18T15:07:52.247Z,102290.87
2023-04-18T15:08:52.825Z,102290.92
2023-04-18T15:09:53.740Z,102290.66
2023-04-18T15:10:54.467Z,102289.95
2023-04-18T15:11:55.377Z,102290.29
2023-04-18T15:12:55.973Z,102289.39
2023-04-18T15:13:05.454Z,102289.26
2023-04-18T15:14:05.818Z,102289.52
2023-04-18T15:15:06.433Z,102289.00
2023-04-18T15:16:06.833Z,102288.75
2023-04-18T15:17:07.400Z,102288.41
2023-04-18T15:18:08.496Z,102288.28
2023-04-18T15:19:08.995Z,102288.36
2023-04-18T15:20:14.283Z,102288.83
2023-04-18T15:21:09.805Z,102288.44
2023-04-18T15:22:10.325Z,102288.27
2023-04-18T15:23:10.686Z,102287.83
2023-04-18T15:24:11.296Z,102287.95
2023-04-18T15:25:11.830Z,102287.66
2023-04-18T15:25:22.080Z,102287.48
2023-04-18T15:26:22.127Z,102287.52
2023-04-18T15:27:22.976Z,102287.60
2023-04-18T15:28:23.077Z,102287.40
2023-04-18T15:29:23.761Z,102287.36
2023-04-18T15:30:24.378Z,102286.89
2023-04-18T15:31:24.865Z,102286.91
2023-04-18T15:32:25.542Z,102286.95
2023-04-18T15:33:25.982Z,102286.66
2023-04-18T15:34:26.429Z,102286.47
2023-04-18T15:35:26.655Z,102286.22
2023-04-18T15:36:27.205Z,102286.36
2023-04-18T15:37:28.043Z,102285.80
2023-04-18T15:38:28.458Z,102285.09
2023-04-18T15:39:29.335Z,102284.55
2023-04-18T15:39:47.750Z,102284.67
2023-04-18T15:40:48.244Z,102284.34
2023-04-18T15:41:49.086Z,102283.83
2023-04-18T15:42:50.598Z,102283.57
2023-04-18T15:43:50.247Z,102283.70
2023-04-18T15:44:50.504Z,102283.28
2023-04-18T15:45:50.983Z,102283.11
2023-04-18T15:46:52.866Z,102282.98
2023-04-18T15:47:52.786Z,102282.64
2023-04-18T15:48:53.219Z,102282.17
2023-04-18T15:49:54.030Z,102282.22
2023-04-18T15:50:02.299Z,102281.72
2023-04-18T15:51:02.471Z,102281.42
2023-04-18T15:52:03.312Z,102280.84
2023-04-18T15:53:03.786Z,102281.22
2023-04-18T15:54:04.315Z,102281.23
2023-04-18T15:55:04.896Z,102280.98
2023-04-18T15:56:05.561Z,102281.23
2023-04-18T15:57:05.658Z,102280.94
2023-04-18T15:58:06.167Z,102281.66
2023-04-18T15:59:07.019Z,102281.63
2023-04-18T16:00:07.633Z,102281.75
2023-04-18T16:01:09.214Z,102281.37
2023-04-18T16:02:09.337Z,102281.02
2023-04-18T16:02:19.663Z,102280.16
2023-04-18T16:03:19.836Z,102279.30
2023-04-18T16:04:20.065Z,102279.08
2023-04-18T16:05:20.693Z,102280.14
2023-04-18T16:06:21.324Z,102279.61
2023-04-18T16:07:21.891Z,102279.48
2023-04-18T16:08:22.149Z,102279.59
2023-04-18T16:09:22.508Z,102279.71
2023-04-18T16:10:26.281Z,102280.08
2023-04-18T16:11:24.243Z,102280.28
2023-04-18T16:12:25.107Z,102280.78
2023-04-18T16:17:02.905Z,102281.36
2023-04-18T16:18:04.316Z,102281.79
2023-04-18T16:19:04.132Z,102281.40
2023-04-18T16:20:04.294Z,102281.05
2023-04-18T16:21:07.728Z,102280.89
2023-04-18T16:22:05.733Z,102280.89
2023-04-18T16:23:06.497Z,102281.11
2023-04-18T16:24:07.266Z,102281.02
2023-04-18T16:25:07.897Z,102281.50
2023-04-18T16:26:09.142Z,102281.07
2023-04-18T16:27:08.473Z,102281.41
2023-04-18T16:28:09.334Z,102281.54
2023-04-18T16:28:54.926Z,102281.50
2023-04-18T16:29:55.011Z,102281.41
2023-04-18T16:30:55.926Z,102282.10
2023-04-18T16:31:56.478Z,102282.65
2023-04-18T16:32:57.559Z,102282.77
2023-04-18T16:33:57.964Z,102283.36
2023-04-18T16:34:58.201Z,102283.14
2023-04-18T16:35:58.757Z,102283.86
2023-04-18T16:36:59.578Z,102284.16
2023-04-18T16:38:00.316Z,102284.42
2023-04-18T16:39:01.040Z,102284.28
2023-04-18T16:39:15.699Z,102284.44
2023-04-18T16:40:16.558Z,102284.66
2023-04-18T16:41:17.380Z,102285.41
2023-04-18T16:42:18.285Z,102285.23
2023-04-18T16:43:19.177Z,102285.09
2023-04-18T16:44:20.025Z,102285.92
2023-04-18T16:45:20.774Z,102285.71
2023-04-18T16:46:21.220Z,102285.92
2023-04-18T16:47:21.313Z,102286.47
2023-04-18T16:48:22.926Z,102286.55
2023-04-18T16:49:22.710Z,102287.36
2023-04-18T16:50:23.594Z,102287.39
2023-04-18T16:51:24.408Z,102287.17
2023-04-18T16:52:25.257Z,102287.52
2023-04-18T16:52:42.247Z,102287.27
2023-04-18T16:53:43.118Z,102286.84
2023-04-18T16:54:43.964Z,102287.34
2023-04-18T16:55:44.171Z,102287.09
2023-04-18T16:56:44.801Z,102287.09
2023-04-18T16:57:45.151Z,102287.39
2023-04-18T16:58:45.199Z,102287.56
2023-04-18T16:59:45.905Z,102287.91
2023-04-18T17:00:46.153Z,102288.53
2023-04-18T17:01:47.058Z,102288.33
2023-04-18T17:01:56.701Z,102288.16
2023-04-18T17:02:56.838Z,102288.13
2023-04-18T17:03:57.087Z,102288.80
2023-04-18T17:04:57.576Z,102289.23
2023-04-18T17:05:57.604Z,102289.78
2023-04-18T17:06:58.326Z,102289.98
2023-04-18T17:07:59.195Z,102290.28
2023-04-18T17:09:01.069Z,102290.44
2023-04-18T17:09:59.740Z,102290.59
2023-04-18T17:11:00.584Z,102290.87
2023-04-18T17:12:01.174Z,102291.84
2023-04-18T17:13:01.921Z,102292.75
2023-04-18T17:14:02.129Z,102293.58
2023-04-18T17:14:25.415Z,102294.48
2023-04-18T17:15:25.265Z,102295.11
2023-04-18T17:16:26.124Z,102296.11
2023-04-18T17:17:26.922Z,102296.84
2023-04-18T17:18:27.767Z,102297.47
2023-04-18T17:19:28.430Z,102298.12
2023-04-18T17:20:28.257Z,102298.39